• Join FlightAware (Why Join?)
  • Login
  • US Flag 
05:54AM EDT


 

Airport Tracker/Info


-or-


 

Live Flight TrackerFlight Track Log ✈ TAM3753 ✈ 24-Jul-2013 ✈ SBCF / CNF - SBRJ / SDU

Flight Track Log - Related Links

Times and Time Zones

All times are in EDT time to prevent confusion due to time zone crossing. See the TAM3753 flight status page for this flight to view local times or setup timezone preferences in your user account.

Time Position Orientation Groundspeed Altitude Reporting Facility
EDT Latitude Longitude Course Direction KTS MPH feet Rate Location/Type
06:23AM -20.7863 -43.6896 167° South  Level Estimated
06:24AM -20.8439 -43.6755 167° South  Level Estimated
06:25AM -20.9016 -43.6614 167° South  Level Estimated
06:26AM -20.9592 -43.6474 167° South  Level Estimated
06:27AM -21.0168 -43.6333 167° South  Level Estimated
06:28AM -21.0744 -43.6191 167° South  Level Estimated
06:29AM -21.1320 -43.6050 167° South  Level Estimated
06:30AM -21.1896 -43.5909 167° South  Level Estimated
06:31AM -21.2472 -43.5767 167° South  Level Estimated
06:32AM -21.3048 -43.5625 167° South  Level Estimated
06:33AM -21.3624 -43.5484 167° South  Level Estimated
06:34AM -21.4200 -43.5342 167° South  Level Estimated
06:35AM -21.4776 -43.5200 167° South  Level Estimated
06:36AM -21.5352 -43.5058 167° South  Level Estimated
06:37AM -21.5928 -43.4916 167° South  Level Estimated
06:38AM -21.6504 -43.4774 167° South  Level Estimated
06:39AM -21.7080 -43.4631 167° South  Level Estimated
06:40AM -21.7656 -43.4489 167° South  Level Estimated
06:41AM -21.8232 -43.4346 167° South  Level Estimated
06:42AM -21.8808 -43.4203 167° South  Level Estimated
06:43AM -21.9384 -43.4061 167° South  Level Estimated
06:44AM -21.9960 -43.3918 167° South  Level Estimated
06:45AM -22.0536 -43.3774 167° South  Level Estimated
06:46AM -22.1112 -43.3631 167° South  Level Estimated
06:47AM -22.1688 -43.3488 167° South  Level Estimated
06:48AM -22.2264 -43.3345 167° South  Level Estimated
06:49AM -22.2840 -43.3201 167° South  Level Estimated
06:50AM -22.3415 -43.3057 167° South  Level Estimated
06:51AM -22.3991 -43.2914 167° South  Level Estimated
06:52AM -22.4567 -43.2770 167° South  Level Estimated
06:53AM -22.5143 -43.2626 167° South  Level Estimated
06:54AM -22.5719 -43.2481 167° South  Level Estimated
06:55AM -22.6294 -43.2337 167° South  Level Estimated
06:56AM -22.6870 -43.2193 167° South  Level Estimated
06:57AM -22.7446 -43.2048 167° South  Level Estimated
06:58AM -22.8022 -43.1904 167° South  Level Estimated
06:59AM -22.8597 -43.1759 167° South  Level Estimated
07:00AM -22.9105 -43.1631 167° South  Level Estimated
07:01AM -22.9105 -43.1631 250° West  Level Estimated
07:02AM -22.9105 -43.1631 250° West  Level Estimated
07:03AM -22.9105 -43.1631 250° West  Level Estimated
07:04AM -22.9105 -43.1631 250° West  Level Estimated
07:05AM -22.9105 -43.1631 250° West  Level Estimated
07:06AM -22.9105 -43.1631 250° West  Level Estimated
07:07AM -22.9105 -43.1631 250° West  Level Estimated
07:08AM -22.9105 -43.1631 250° West  Level Estimated
07:09AM -22.9105 -43.1631 250° West  Level Estimated
07:10AM -22.9105 -43.1631 250° West  Level Estimated
07:11AM -22.9105 -43.1631 250° West  Level Estimated
07:12AM -22.9105 -43.1631 250° West  Level Estimated
07:13AM -22.9105 -43.1631 250° West  Level Estimated
07:14AM -22.9105 -43.1631 250° West  Level Estimated
07:15AM -22.9105 -43.1631 250° West  Level Estimated
07:16AM -22.9105 -43.1631 250° West  Level Estimated